Time;durP1;ratioP1;P1;durP2;ratioP2;P2;SDS_P1;SDS_P2;PMS_P1;PMS_P2;Temp;Humidity;BMP_temperature;BMP_pressure;BME280_temperature;BME280_humidity;BME280_pressure;Samples;Min_cycle;Max_cycle;Signal;HPM_P1;HPM_P2
2023/09/19 00:02:17;;;;;;;3.00;0.98;;;17.60;99.90;;;;;;5104293;28;20585;-67
2023/09/19 00:04:43;;;;;;;1.73;1.02;;;17.50;99.90;;;;;;5082617;28;20016;-66
2023/09/19 00:07:11;;;;;;;1.70;0.70;;;17.50;99.90;;;;;;5096390;28;20389;-66
2023/09/19 00:09:37;;;;;;;2.30;0.90;;;17.50;99.90;;;;;;5101291;28;20035;-66
2023/09/19 00:12:05;;;;;;;1.05;0.88;;;17.50;99.90;;;;;;5100309;28;20020;-66
2023/09/19 00:14:34;;;;;;;2.35;1.10;;;17.50;99.90;;;;;;5093873;28;20023;-66
2023/09/19 00:17:00;;;;;;;2.45;1.10;;;17.50;99.90;;;;;;5099330;28;20031;-67
2023/09/19 00:19:26;;;;;;;1.23;0.80;;;17.50;99.90;;;;;;5102129;28;20103;-66
2023/09/19 00:21:53;;;;;;;2.13;0.98;;;17.40;99.90;;;;;;5104859;28;20051;-67
2023/09/19 00:24:18;;;;;;;2.03;0.77;;;17.40;99.90;;;;;;5095561;28;20065;-66
2023/09/19 00:26:47;;;;;;;0.73;0.70;;;17.40;99.90;;;;;;5103458;28;20469;-66
2023/09/19 00:29:16;;;;;;;2.17;0.80;;;17.30;99.90;;;;;;5107306;28;20058;-67
2023/09/19 00:31:43;;;;;;;1.98;0.73;;;17.30;99.90;;;;;;5096447;28;20127;-67
2023/09/19 00:34:10;;;;;;;0.98;0.73;;;17.20;99.90;;;;;;5096777;28;20361;-67
2023/09/19 00:36:38;;;;;;;1.70;1.00;;;17.10;99.90;;;;;;5098164;28;20040;-66
2023/09/19 00:39:05;;;;;;;3.20;0.93;;;17.10;99.90;;;;;;5080881;28;20024;-67
2023/09/19 00:41:35;;;;;;;1.90;0.90;;;17.10;99.90;;;;;;5098642;28;20102;-66
2023/09/19 00:44:02;;;;;;;;;;;17.10;99.90;;;;;;5099418;28;20035;-67
2023/09/19 00:46:28;;;;;;;2.55;1.35;;;17.00;99.90;;;;;;5108918;28;19920;-66
2023/09/19 00:48:53;;;;;;;1.50;0.80;;;17.00;99.90;;;;;;5099796;28;20089;-68
2023/09/19 00:51:22;;;;;;;2.03;0.80;;;17.00;99.90;;;;;;5101608;28;20027;-66
2023/09/19 00:53:47;;;;;;;1.52;0.88;;;16.90;99.90;;;;;;5090595;28;20027;-69
2023/09/19 00:56:14;;;;;;;2.40;1.08;;;16.90;99.90;;;;;;5104321;28;20597;-66
2023/09/19 00:58:40;;;;;;;1.10;0.80;;;16.90;99.90;;;;;;5094331;28;20441;-66
2023/09/19 01:01:07;;;;;;;2.28;1.00;;;16.90;99.90;;;;;;5103266;28;20031;-66
2023/09/19 01:03:39;;;;;;;2.40;0.85;;;16.90;99.90;;;;;;5107415;28;20468;-67
2023/09/19 01:06:05;;;;;;;1.77;0.70;;;16.90;99.90;;;;;;5080011;28;20031;-67
2023/09/19 01:08:31;;;;;;;1.00;0.80;;;16.90;99.90;;;;;;5092695;28;20024;-67
2023/09/19 01:11:08;;;;;;;2.50;0.80;;;17.00;99.90;;;;;;5103463;28;20032;-66
2023/09/19 01:14:07;;;;;;;1.00;0.70;;;17.00;99.90;;;;;;5097072;28;20024;-67
2023/09/19 01:16:49;;;;;;;3.83;0.80;;;17.10;99.90;;;;;;5088114;28;20140;-67
2023/09/19 01:19:18;;;;;;;1.10;0.63;;;17.10;99.90;;;;;;5109678;28;20031;-66
2023/09/19 01:21:46;;;;;;;1.27;0.80;;;17.10;99.90;;;;;;5113304;28;20440;-66
2023/09/19 01:24:36;;;;;;;1.75;0.77;;;17.10;99.90;;;;;;5098754;28;20038;-66
2023/09/19 01:27:14;;;;;;;1.50;0.63;;;17.10;99.90;;;;;;5091917;28;20083;-67
2023/09/19 01:29:44;;;;;;;1.30;0.68;;;17.10;99.90;;;;;;5108320;28;20027;-66
2023/09/19 01:32:14;;;;;;;1.83;1.10;;;17.10;99.90;;;;;;5096312;28;20369;-66
2023/09/19 01:34:48;;;;;;;0.90;0.77;;;17.10;99.90;;;;;;5103311;28;20024;-67
2023/09/19 01:37:19;;;;;;;0.55;0.43;;;17.10;99.90;;;;;;5110592;28;20027;-66
2023/09/19 01:39:48;;;;;;;3.22;0.70;;;17.00;99.90;;;;;;5099284;28;20032;-67
2023/09/19 01:42:38;;;;;;;1.52;0.85;;;17.00;99.90;;;;;;5098599;28;20020;-66
2023/09/19 01:45:31;;;;;;;1.45;0.80;;;17.00;99.90;;;;;;5076310;28;20053;-67
2023/09/19 01:48:06;;;;;;;2.63;0.88;;;17.10;99.90;;;;;;5107829;28;20489;-68
2023/09/19 01:50:43;;;;;;;1.48;0.70;;;17.10;99.90;;;;;;5099252;28;20024;-67
2023/09/19 01:53:24;;;;;;;1.13;0.77;;;17.10;99.90;;;;;;5094742;28;20107;-68
2023/09/19 01:55:50;;;;;;;;;;;17.20;99.90;;;;;;5108849;28;20027;-68
2023/09/19 01:58:29;;;;;;;0.60;0.60;;;17.20;99.90;;;;;;5096867;28;19965;-66
2023/09/19 02:00:58;;;;;;;1.40;0.93;;;17.20;99.90;;;;;;5106028;28;20107;-68
2023/09/19 02:03:24;;;;;;;0.93;0.68;;;17.20;99.90;;;;;;5102793;28;20094;-68
2023/09/19 02:05:53;;;;;;;3.88;0.80;;;17.20;99.90;;;;;;5099031;28;20073;-68
2023/09/19 02:08:21;;;;;;;2.78;0.70;;;17.20;99.90;;;;;;5093367;28;20131;-66
2023/09/19 02:10:49;;;;;;;0.98;0.80;;;17.20;99.90;;;;;;5112847;28;20372;-67
2023/09/19 02:13:19;;;;;;;1.02;0.68;;;17.20;99.90;;;;;;5101039;28;20024;-69
2023/09/19 02:15:46;;;;;;;1.25;0.43;;;17.20;99.90;;;;;;5105626;28;20066;-67
2023/09/19 02:18:14;;;;;;;0.60;0.60;;;17.20;99.90;;;;;;5104744;28;20051;-68
2023/09/19 02:20:40;;;;;;;1.20;0.80;;;17.10;99.90;;;;;;5093254;28;20015;-67
2023/09/19 02:23:07;;;;;;;2.10;0.70;;;17.10;99.90;;;;;;5101440;28;20581;-68
2023/09/19 02:25:33;;;;;;;0.95;0.60;;;17.10;99.90;;;;;;5106081;28;20478;-66
2023/09/19 02:28:01;;;;;;;3.20;0.70;;;17.10;99.90;;;;;;5105456;28;20023;-68
2023/09/19 02:30:26;;;;;;;1.15;0.70;;;17.00;99.90;;;;;;5110268;28;20091;-67
2023/09/19 02:32:52;;;;;;;2.55;0.68;;;17.00;99.90;;;;;;5098797;28;20115;-66
2023/09/19 02:35:20;;;;;;;2.00;0.90;;;17.00;99.90;;;;;;5085718;28;20039;-67
2023/09/19 02:37:47;;;;;;;1.40;0.63;;;17.00;99.90;;;;;;5104228;28;20096;-66
2023/09/19 02:40:19;;;;;;;1.00;0.85;;;16.90;99.90;;;;;;5095992;28;20038;-66
2023/09/19 02:42:49;;;;;;;1.67;0.70;;;16.90;99.90;;;;;;5102309;28;20034;-66
2023/09/19 02:45:18;;;;;;;3.50;0.88;;;16.80;99.90;;;;;;5108038;28;20086;-66
2023/09/19 02:47:47;;;;;;;5.03;0.88;;;16.80;99.90;;;;;;5098345;28;20028;-67
2023/09/19 02:50:15;;;;;;;1.85;0.82;;;16.80;99.90;;;;;;5097152;28;20020;-67
2023/09/19 02:52:48;;;;;;;2.08;0.68;;;16.80;99.90;;;;;;5099588;28;20100;-67
2023/09/19 02:55:17;;;;;;;1.25;0.70;;;16.70;99.90;;;;;;5103738;28;20058;-67
2023/09/19 02:57:56;;;;;;;3.28;0.90;;;16.70;99.90;;;;;;5100777;28;20031;-67
2023/09/19 03:00:23;;;;;;;1.30;0.55;;;16.70;99.90;;;;;;5101726;28;20024;-67
2023/09/19 03:02:50;;;;;;;0.70;0.70;;;16.70;99.90;;;;;;5110709;28;20035;-67
2023/09/19 03:05:16;;;;;;;1.95;0.68;;;16.80;99.90;;;;;;5099389;28;20652;-67
2023/09/19 03:07:43;;;;;;;2.85;1.65;;;16.80;99.90;;;;;;5095362;28;20036;-67
2023/09/19 03:10:09;;;;;;;2.40;0.90;;;16.80;99.90;;;;;;5094539;28;20031;-67
2023/09/19 03:12:35;;;;;;;0.80;0.77;;;16.80;99.90;;;;;;5104432;28;20481;-67
2023/09/19 03:15:01;;;;;;;0.73;0.70;;;16.90;99.90;;;;;;5095899;28;20020;-67
2023/09/19 03:17:27;;;;;;;4.40;0.90;;;17.00;99.90;;;;;;5103670;28;20081;-67
2023/09/19 03:19:53;;;;;;;1.75;0.80;;;17.00;99.90;;;;;;5106991;28;20024;-67
2023/09/19 03:22:19;;;;;;;2.85;0.80;;;17.00;99.90;;;;;;5106173;28;20055;-67
2023/09/19 03:24:46;;;;;;;1.77;0.65;;;17.00;99.90;;;;;;5098437;28;20052;-67
2023/09/19 03:27:13;;;;;;;0.65;0.65;;;17.00;99.90;;;;;;5098274;28;20065;-67
2023/09/19 03:29:39;;;;;;;3.20;0.82;;;16.90;99.90;;;;;;5105793;28;20092;-67
2023/09/19 03:32:05;;;;;;;2.85;1.05;;;16.90;99.90;;;;;;5095679;28;20476;-67
2023/09/19 03:34:31;;;;;;;5.10;0.95;;;16.90;99.90;;;;;;5099963;28;20460;-67
2023/09/19 03:36:56;;;;;;;2.40;0.93;;;16.90;99.90;;;;;;5108629;28;20138;-68
2023/09/19 03:39:22;;;;;;;1.67;1.35;;;16.80;99.90;;;;;;5098166;28;20456;-67
2023/09/19 03:41:49;;;;;;;0.70;0.70;;;16.80;99.90;;;;;;5100470;28;20456;-66
2023/09/19 03:44:15;;;;;;;1.38;0.80;;;16.90;99.90;;;;;;5092701;28;20157;-67
2023/09/19 03:46:40;;;;;;;1.80;0.93;;;16.90;99.90;;;;;;5111200;28;20094;-67
2023/09/19 03:49:06;;;;;;;0.70;0.70;;;16.90;99.90;;;;;;5099180;28;20028;-67
2023/09/19 03:51:34;;;;;;;2.15;0.88;;;16.90;99.90;;;;;;5103762;28;20521;-67
2023/09/19 03:53:59;;;;;;;1.67;0.77;;;16.90;99.90;;;;;;5093480;28;20047;-66
2023/09/19 03:56:25;;;;;;;2.05;1.10;;;16.90;99.90;;;;;;5105123;28;20097;-67
2023/09/19 03:58:51;;;;;;;2.25;0.90;;;16.90;99.90;;;;;;5096202;28;20026;-67
2023/09/19 04:01:18;;;;;;;2.63;1.05;;;16.90;99.90;;;;;;5103909;28;20350;-67
2023/09/19 04:03:47;;;;;;;1.52;0.82;;;16.90;99.90;;;;;;5107808;28;20030;-66
2023/09/19 04:06:16;;;;;;;2.67;1.15;;;16.90;99.90;;;;;;5093866;28;20028;-67
2023/09/19 04:08:43;;;;;;;0.90;0.90;;;16.90;99.90;;;;;;5093579;28;20115;-66
2023/09/19 04:11:09;;;;;;;2.63;1.08;;;16.90;99.90;;;;;;5103544;28;20035;-67
2023/09/19 04:13:35;;;;;;;1.83;1.10;;;16.90;99.90;;;;;;5097690;28;20035;-67
2023/09/19 04:16:00;;;;;;;1.90;0.90;;;16.90;99.90;;;;;;5096305;28;20563;-66
2023/09/19 04:18:26;;;;;;;1.05;0.93;;;16.80;99.90;;;;;;5094830;28;20035;-66
2023/09/19 04:20:52;;;;;;;3.13;1.15;;;16.80;99.90;;;;;;5111362;28;20024;-67
2023/09/19 04:23:21;;;;;;;2.65;1.08;;;16.70;99.90;;;;;;5080612;28;20086;-67
2023/09/19 04:25:48;;;;;;;3.33;0.93;;;16.80;99.90;;;;;;5102655;28;20043;-67
2023/09/19 04:28:13;;;;;;;2.17;0.88;;;16.80;99.90;;;;;;5105822;28;20125;-67
2023/09/19 04:30:42;;;;;;;2.72;0.98;;;16.70;99.90;;;;;;5102989;28;20113;-67
2023/09/19 04:33:08;;;;;;;2.33;1.10;;;16.70;99.90;;;;;;5098584;28;20063;-67
2023/09/19 04:35:34;;;;;;;1.35;0.95;;;16.70;99.90;;;;;;5105514;28;20024;-66
2023/09/19 04:38:01;;;;;;;5.18;1.48;;;16.70;99.90;;;;;;5104352;28;20055;-68
2023/09/19 04:40:26;;;;;;;0.95;0.82;;;16.60;99.90;;;;;;5095069;28;20419;-67
2023/09/19 04:42:58;;;;;;;2.95;1.30;;;16.60;99.90;;;;;;5102429;28;20024;-67
2023/09/19 04:45:24;;;;;;;2.20;1.00;;;16.60;99.90;;;;;;5093419;28;20074;-66
2023/09/19 04:47:50;;;;;;;3.58;1.25;;;16.70;99.90;;;;;;5110686;28;20042;-67
2023/09/19 04:50:17;;;;;;;1.40;1.08;;;16.70;99.90;;;;;;5099581;28;20012;-67
2023/09/19 04:52:44;;;;;;;2.10;1.13;;;16.70;99.90;;;;;;5099076;28;20456;-67
2023/09/19 04:55:17;;;;;;;1.17;0.90;;;16.70;99.90;;;;;;5097259;28;20039;-67
2023/09/19 04:57:47;;;;;;;1.35;0.95;;;16.70;99.90;;;;;;5103276;28;20163;-67
2023/09/19 05:00:18;;;;;;;3.17;1.40;;;16.60;99.90;;;;;;5102583;28;20024;-69
2023/09/19 05:02:44;;;;;;;3.55;1.05;;;16.50;99.90;;;;;;5090780;28;20034;-69
2023/09/19 05:05:11;;;;;;;1.90;1.00;;;16.40;99.90;;;;;;5101542;28;20028;-69
2023/09/19 05:07:39;;;;;;;1.05;0.95;;;16.20;99.90;;;;;;5098734;28;20028;-73
2023/09/19 05:10:08;;;;;;;2.97;1.27;;;16.10;99.90;;;;;;5103866;28;20031;-70
2023/09/19 05:12:35;;;;;;;3.13;1.40;;;15.90;99.90;;;;;;5106950;28;20045;-69
2023/09/19 05:15:04;;;;;;;2.38;1.20;;;15.90;99.90;;;;;;5087785;28;20048;-70
2023/09/19 05:17:31;;;;;;;3.75;1.75;;;15.80;99.90;;;;;;5106572;28;20036;-70
2023/09/19 05:19:57;;;;;;;2.50;1.10;;;15.70;99.90;;;;;;5101147;28;20436;-70
2023/09/19 05:22:24;;;;;;;2.25;1.65;;;15.60;99.90;;;;;;5108431;28;20476;-70
2023/09/19 05:24:51;;;;;;;2.03;1.40;;;15.60;99.90;;;;;;5101573;28;20027;-70
2023/09/19 05:27:16;;;;;;;3.20;1.40;;;15.50;99.90;;;;;;5100759;28;20659;-69
2023/09/19 05:29:44;;;;;;;2.35;1.40;;;15.40;99.90;;;;;;5112563;28;20110;-69
2023/09/19 05:32:10;;;;;;;2.58;1.92;;;15.40;99.90;;;;;;5100207;28;20028;-69
2023/09/19 05:34:36;;;;;;;2.50;1.30;;;15.40;99.90;;;;;;5108002;28;20472;-69
2023/09/19 05:37:02;;;;;;;3.47;1.45;;;15.40;99.90;;;;;;5111361;28;20118;-69
2023/09/19 05:39:28;;;;;;;1.58;1.33;;;15.40;99.90;;;;;;5101355;28;20457;-69
2023/09/19 05:41:53;;;;;;;5.03;1.77;;;15.40;99.90;;;;;;5102917;28;20026;-71
2023/09/19 05:44:19;;;;;;;3.65;1.50;;;15.40;99.90;;;;;;5105101;27;20019;-70
2023/09/19 05:46:48;;;;;;;2.95;1.35;;;15.50;99.90;;;;;;5104444;28;20085;-71
2023/09/19 05:49:13;;;;;;;5.00;1.23;;;15.50;99.90;;;;;;5099115;28;20449;-71
2023/09/19 05:51:39;;;;;;;1.30;1.20;;;15.70;99.90;;;;;;5106266;28;20103;-70
2023/09/19 05:54:05;;;;;;;4.30;1.50;;;15.60;99.90;;;;;;5095187;28;20024;-70
2023/09/19 05:56:31;;;;;;;7.18;1.92;;;15.40;99.90;;;;;;5106738;28;20043;-70
2023/09/19 05:58:56;;;;;;;3.60;1.50;;;15.30;99.90;;;;;;5094797;28;20032;-71
2023/09/19 06:01:22;;;;;;;4.78;1.40;;;15.20;99.90;;;;;;5096821;28;20042;-69
2023/09/19 06:03:48;;;;;;;2.10;1.20;;;15.10;99.90;;;;;;5100279;28;20499;-71
2023/09/19 06:06:14;;;;;;;2.75;1.48;;;15.00;99.90;;;;;;5097013;28;20095;-71
2023/09/19 06:08:40;;;;;;;3.80;1.50;;;14.90;99.90;;;;;;5097643;28;20028;-71
2023/09/19 06:11:09;;;;;;;2.45;1.75;;;14.90;99.90;;;;;;5105280;28;20024;-71
2023/09/19 06:13:34;;;;;;;6.50;2.20;;;14.90;99.90;;;;;;5096730;28;20038;-70
2023/09/19 06:16:04;;;;;;;5.68;1.90;;;14.90;99.90;;;;;;5092012;28;20028;-71
2023/09/19 06:18:36;;;;;;;3.97;1.92;;;14.90;99.90;;;;;;5105612;28;20460;-71
2023/09/19 06:21:07;;;;;;;4.93;1.58;;;15.00;99.90;;;;;;5112269;28;20027;-71
2023/09/19 06:23:34;;;;;;;1.63;1.20;;;15.00;99.90;;;;;;5101471;28;20392;-70
2023/09/19 06:26:03;;;;;;;4.30;1.42;;;15.00;99.90;;;;;;5101796;28;20485;-71
2023/09/19 06:28:28;;;;;;;2.17;1.40;;;15.00;99.90;;;;;;5110751;28;20015;-71
2023/09/19 06:30:55;;;;;;;4.85;1.80;;;15.00;99.90;;;;;;5102721;28;20277;-71
2023/09/19 06:33:21;;;;;;;5.05;1.80;;;14.90;99.90;;;;;;5094279;28;20510;-71
2023/09/19 06:35:47;;;;;;;4.20;1.55;;;14.90;99.90;;;;;;5099608;28;20035;-71
2023/09/19 06:38:15;;;;;;;4.25;2.38;;;14.90;99.90;;;;;;5095641;28;20515;-71
2023/09/19 06:40:44;;;;;;;5.53;1.60;;;14.90;99.90;;;;;;5094081;28;20023;-71
2023/09/19 06:43:12;;;;;;;4.32;1.98;;;15.00;99.90;;;;;;5108131;28;20487;-69
2023/09/19 06:45:39;;;;;;;5.53;2.35;;;15.10;99.90;;;;;;5109363;28;20127;-69
2023/09/19 06:48:05;;;;;;;3.58;1.98;;;15.10;99.90;;;;;;5096506;28;20527;-70
2023/09/19 06:50:32;;;;;;;4.78;2.00;;;15.30;99.90;;;;;;5099259;28;20034;-69
2023/09/19 06:53:00;;;;;;;3.90;1.90;;;15.30;99.90;;;;;;5087893;28;20024;-70
2023/09/19 06:55:27;;;;;;;3.05;1.75;;;15.40;99.90;;;;;;5097334;28;20031;-70
2023/09/19 06:57:56;;;;;;;5.57;1.58;;;15.50;99.90;;;;;;5101717;28;20046;-70
2023/09/19 07:00:23;;;;;;;5.07;1.88;;;15.60;99.90;;;;;;5106546;28;20023;-70
2023/09/19 07:03:08;;;;;;;4.30;1.95;;;15.60;99.90;;;;;;5102854;28;20047;-70
2023/09/19 07:05:38;;;;;;;4.53;1.60;;;15.60;99.90;;;;;;5101597;28;20368;-70
2023/09/19 07:08:05;;;;;;;3.83;1.80;;;15.70;99.90;;;;;;5091626;28;20388;-70
2023/09/19 07:10:32;;;;;;;2.90;1.50;;;15.70;99.90;;;;;;5097771;28;20023;-70
2023/09/19 07:13:02;;;;;;;3.47;1.63;;;15.70;99.90;;;;;;5093965;28;20047;-70
2023/09/19 07:15:30;;;;;;;3.13;1.70;;;15.80;99.90;;;;;;5092443;28;20176;-71
2023/09/19 07:17:56;;;;;;;3.63;1.80;;;15.90;99.90;;;;;;5104331;28;20085;-69
2023/09/19 07:20:27;;;;;;;3.35;1.80;;;15.90;99.90;;;;;;5104110;28;20036;-69
2023/09/19 07:22:54;;;;;;;3.70;1.60;;;16.00;99.90;;;;;;5097054;28;20035;-69
2023/09/19 07:25:20;;;;;;;4.05;1.88;;;16.00;99.90;;;;;;5104968;28;20028;-69
2023/09/19 07:27:46;;;;;;;2.85;1.40;;;16.10;99.90;;;;;;5099071;28;20036;-71
2023/09/19 07:30:12;;;;;;;6.35;1.52;;;16.10;99.90;;;;;;5078662;28;20492;-69
2023/09/19 07:32:38;;;;;;;2.88;1.85;;;16.20;99.90;;;;;;5094078;28;20020;-69
2023/09/19 07:35:05;;;;;;;4.15;1.67;;;16.20;99.90;;;;;;5100685;28;20062;-69
2023/09/19 07:37:33;;;;;;;4.25;1.67;;;16.20;99.90;;;;;;5107713;28;20051;-71
2023/09/19 07:40:11;;;;;;;7.70;1.85;;;16.20;99.90;;;;;;5096521;28;20465;-71
2023/09/19 07:42:38;;;;;;;5.15;1.60;;;16.30;99.90;;;;;;5087488;28;20098;-70
2023/09/19 07:45:05;;;;;;;4.70;1.80;;;16.30;99.90;;;;;;5092711;28;20047;-71
2023/09/19 07:47:32;;;;;;;3.15;1.20;;;16.30;99.90;;;;;;5097106;28;20039;-70
2023/09/19 07:49:58;;;;;;;4.35;1.58;;;16.40;99.90;;;;;;5099670;28;20031;-71
2023/09/19 07:52:24;;;;;;;5.28;1.90;;;16.50;99.90;;;;;;5102641;28;20016;-71
2023/09/19 07:54:50;;;;;;;5.22;1.65;;;16.60;99.90;;;;;;5098081;28;20372;-70
2023/09/19 07:57:16;;;;;;;5.72;2.75;;;16.70;99.90;;;;;;5105455;28;20334;-70
2023/09/19 07:59:42;;;;;;;5.70;2.90;;;16.70;99.90;;;;;;5084318;28;20036;-70
2023/09/19 08:02:15;;;;;;;3.28;2.00;;;16.80;99.90;;;;;;5090132;28;20024;-70
2023/09/19 08:04:46;;;;;;;3.13;1.27;;;16.80;99.90;;;;;;5100862;28;20056;-70
2023/09/19 08:07:12;;;;;;;2.78;1.65;;;16.90;99.90;;;;;;5108008;28;20027;-70
2023/09/19 08:09:38;;;;;;;2.72;1.55;;;17.00;99.90;;;;;;5097211;28;20023;-70
2023/09/19 08:12:05;;;;;;;7.20;1.80;;;17.00;99.90;;;;;;5095434;28;20482;-70
2023/09/19 08:14:30;;;;;;;4.80;1.48;;;17.10;99.90;;;;;;5093349;28;20468;-70
2023/09/19 08:17:00;;;;;;;2.20;1.20;;;17.20;99.90;;;;;;5102789;28;20027;-71
2023/09/19 08:19:29;;;;;;;2.90;1.67;;;17.40;99.90;;;;;;5090769;28;20435;-70
2023/09/19 08:21:58;;;;;;;3.30;1.30;;;17.50;99.90;;;;;;5100364;28;20042;-70
2023/09/19 08:24:28;;;;;;;3.45;1.13;;;17.60;99.90;;;;;;5105777;28;20383;-69
2023/09/19 08:26:57;;;;;;;2.88;1.23;;;17.60;99.90;;;;;;5101081;28;20024;-70
2023/09/19 08:29:30;;;;;;;2.95;1.05;;;17.80;99.90;;;;;;5092392;28;20028;-70
2023/09/19 08:31:57;;;;;;;2.28;1.27;;;17.80;99.90;;;;;;5088464;28;20110;-70
2023/09/19 08:34:26;;;;;;;1.63;1.25;;;18.00;99.90;;;;;;5077915;28;20040;-70
2023/09/19 08:36:56;;;;;;;2.07;1.27;;;18.10;99.90;;;;;;5086291;28;20450;-70
2023/09/19 08:39:22;;;;;;;1.83;1.00;;;18.20;99.90;;;;;;5083551;28;20020;-69
2023/09/19 08:41:48;;;;;;;1.25;1.08;;;18.30;99.90;;;;;;5093697;28;20391;-70
2023/09/19 08:44:14;;;;;;;2.35;1.23;;;18.60;99.90;;;;;;5092534;28;20590;-70
2023/09/19 08:46:42;;;;;;;3.13;1.17;;;18.70;99.90;;;;;;5078064;28;20120;-70
2023/09/19 08:49:33;;;;;;;5.10;1.42;;;18.80;99.90;;;;;;5077325;28;20020;-71
2023/09/19 08:52:10;;;;;;;3.08;1.27;;;18.90;99.90;;;;;;5084740;28;20035;-71
2023/09/19 08:54:39;;;;;;;2.15;1.30;;;19.00;99.90;;;;;;5075369;28;20100;-70
2023/09/19 08:57:11;;;;;;;2.67;1.20;;;19.00;99.90;;;;;;5076673;28;20048;-71
2023/09/19 08:59:40;;;;;;;3.00;1.10;;;19.10;99.90;;;;;;5078019;28;20457;-70
2023/09/19 09:02:11;;;;;;;2.60;0.98;;;19.20;99.90;;;;;;5064311;28;20111;-70
2023/09/19 09:04:40;;;;;;;2.10;1.00;;;19.20;99.90;;;;;;5076129;28;20021;-70
2023/09/19 09:07:10;;;;;;;3.63;1.25;;;19.20;99.90;;;;;;5076631;28;20400;-70
2023/09/19 09:09:36;;;;;;;2.35;1.17;;;19.20;99.90;;;;;;5072478;28;20505;-70
2023/09/19 09:12:03;;;;;;;2.88;1.13;;;19.30;99.90;;;;;;5076115;28;20078;-70
2023/09/19 09:14:29;;;;;;;3.28;0.98;;;19.50;99.90;;;;;;5080977;28;20107;-70
2023/09/19 09:16:58;;;;;;;3.33;1.30;;;19.70;99.90;;;;;;5077979;28;20063;-70
2023/09/19 09:19:24;;;;;;;4.00;1.55;;;19.80;99.90;;;;;;5072455;28;20029;-70
2023/09/19 09:21:51;;;;;;;3.03;1.33;;;19.90;99.90;;;;;;5081168;28;20457;-70
2023/09/19 09:24:31;;;;;;;3.20;1.30;;;20.00;99.90;;;;;;5063424;28;20020;-70
2023/09/19 09:26:57;;;;;;;2.53;1.40;;;20.20;99.90;;;;;;5071898;28;20086;-70
2023/09/19 09:29:49;;;;;;;3.42;1.42;;;20.20;99.90;;;;;;5069649;28;20108;-70
2023/09/19 09:32:26;;;;;;;2.17;1.35;;;20.20;99.90;;;;;;5071189;28;20032;-70
2023/09/19 09:35:00;;;;;;;5.80;1.27;;;20.40;99.90;;;;;;5074051;28;20351;-70
2023/09/19 09:37:28;;;;;;;2.78;1.60;;;20.40;99.90;;;;;;5076187;28;20039;-70
2023/09/19 09:40:12;;;;;;;3.63;1.60;;;20.40;99.90;;;;;;5073195;28;20108;-70
2023/09/19 09:42:41;;;;;;;6.55;1.88;;;20.40;99.90;;;;;;5074052;28;20017;-70
2023/09/19 09:48:13;;;;;;;2.53;1.20;;;20.60;99.90;;;;;;5103045;28;20510;-70
2023/09/19 09:50:56;;;;;;;3.80;1.50;;;20.70;99.90;;;;;;5090731;28;20034;-69
2023/09/19 09:53:31;;;;;;;2.05;1.38;;;20.80;99.90;;;;;;5102793;28;20024;-71
2023/09/19 09:55:59;;;;;;;2.28;1.20;;;21.00;99.90;;;;;;5103656;28;20464;-71
2023/09/19 09:58:29;;;;;;;4.88;1.58;;;21.20;99.90;;;;;;5104183;28;20388;-70
2023/09/19 10:00:59;;;;;;;1.63;1.23;;;21.20;99.90;;;;;;5086764;28;20537;-70
2023/09/19 10:03:34;;;;;;;4.88;1.50;;;21.40;99.90;;;;;;5097316;28;20036;-68
2023/09/19 10:06:02;;;;;;;2.38;1.50;;;21.70;99.90;;;;;;5103925;28;20028;-72
2023/09/19 10:08:31;;;;;;;1.98;1.30;;;21.80;99.90;;;;;;5093815;28;20028;-71
2023/09/19 10:11:06;;;;;;;2.10;1.25;;;22.00;99.90;;;;;;5096932;28;20133;-77
2023/09/19 10:13:36;;;;;;;2.03;1.30;;;22.10;99.90;;;;;;5105541;28;20027;-69
2023/09/19 10:16:10;;;;;;;1.98;1.23;;;22.20;99.90;;;;;;5093762;28;20102;-70
2023/09/19 10:18:38;;;;;;;2.92;1.60;;;22.30;99.90;;;;;;5102800;28;20054;-69
2023/09/19 10:21:06;;;;;;;3.05;1.67;;;22.40;99.90;;;;;;5098088;28;20468;-70
2023/09/19 10:23:34;;;;;;;1.52;1.33;;;22.50;99.90;;;;;;5107516;28;20644;-69
2023/09/19 10:26:01;;;;;;;2.83;1.65;;;22.40;99.90;;;;;;5107847;28;20050;-70
2023/09/19 10:28:30;;;;;;;2.15;1.45;;;22.50;99.90;;;;;;5097037;28;20020;-69
2023/09/19 10:30:57;;;;;;;2.47;1.50;;;22.30;99.70;;;;;;5092351;28;20043;-70
2023/09/19 10:33:29;;;;;;;1.80;1.30;;;22.20;99.90;;;;;;5091542;28;20115;-70
2023/09/19 10:35:59;;;;;;;1.98;1.27;;;22.00;99.90;;;;;;5097121;28;20461;-71
2023/09/19 10:38:25;;;;;;;;;;;21.90;99.90;;;;;;5093037;28;20469;-70
2023/09/19 10:40:53;;;;;;;5.50;1.60;;;21.90;99.90;;;;;;5098677;28;19908;-74
2023/09/19 10:43:29;;;;;;;2.70;1.40;;;21.90;99.90;;;;;;5097227;28;20835;-73
2023/09/19 10:46:01;;;;;;;2.38;1.33;;;21.80;99.90;;;;;;5099033;28;20047;-72
2023/09/19 10:48:28;;;;;;;3.92;1.20;;;21.80;99.60;;;;;;5099369;28;20020;-73
2023/09/19 10:51:16;;;;;;;2.67;1.15;;;21.60;99.60;;;;;;5091700;28;20039;-72
2023/09/19 10:53:55;;;;;;;3.70;1.30;;;21.50;99.90;;;;;;5100385;28;20058;-70
2023/09/19 10:56:32;;;;;;;2.60;1.10;;;21.40;99.90;;;;;;5101147;28;20050;-72
2023/09/19 10:59:12;;;;;;;1.45;1.30;;;21.40;99.90;;;;;;5091502;28;20031;-69
2023/09/19 11:01:47;;;;;;;4.40;1.65;;;21.30;99.80;;;;;;5088909;28;20138;-67
2023/09/19 11:04:35;;;;;;;3.90;1.67;;;21.40;99.90;;;;;;5095495;28;20074;-69
2023/09/19 11:07:11;;;;;;;1.90;1.13;;;21.60;99.90;;;;;;5084610;28;20024;-69
2023/09/19 11:09:53;;;;;;;1.73;0.90;;;21.80;99.70;;;;;;5095401;28;20031;-68
2023/09/19 11:12:31;;;;;;;3.55;1.17;;;21.90;99.50;;;;;;5090229;28;20020;-68
2023/09/19 11:15:00;;;;;;;3.88;1.52;;;21.80;99.20;;;;;;5106710;28;20032;-69
2023/09/19 11:17:37;;;;;;;1.75;1.30;;;21.80;99.60;;;;;;5093082;28;20028;-68
2023/09/19 11:22:53;;;;;;;2.05;1.20;;;21.70;99.70;;;;;;5100689;28;20444;-68
2023/09/19 11:25:30;;;;;;;1.30;1.10;;;21.70;99.50;;;;;;5103131;28;20081;-68
2023/09/19 11:28:05;;;;;;;3.08;1.38;;;21.90;98.70;;;;;;5097089;28;20423;-69
2023/09/19 11:30:36;;;;;;;2.47;1.20;;;21.90;98.90;;;;;;5095366;28;20050;-68
2023/09/19 11:36:16;;;;;;;2.85;1.15;;;22.20;98.50;;;;;;5093648;28;20074;-68
2023/09/19 11:38:44;;;;;;;4.15;1.00;;;22.20;97.90;;;;;;5098384;28;20028;-68
2023/09/19 11:41:25;;;;;;;4.03;1.30;;;22.10;97.40;;;;;;5089591;28;20170;-66
2023/09/19 11:44:13;;;;;;;;;;;22.20;97.00;;;;;;5106825;28;20104;-67
2023/09/19 11:46:51;;;;;;;5.00;1.00;;;22.30;96.90;;;;;;5096864;28;19923;-66
2023/09/19 11:49:21;;;;;;;3.10;1.08;;;22.50;96.90;;;;;;5098122;28;20033;-70
2023/09/19 11:51:47;;;;;;;;;;;22.50;96.30;;;;;;5101591;28;20062;-67
2023/09/19 11:54:18;;;;;;;1.58;1.40;;;22.50;96.40;;;;;;5091706;28;19911;-67
2023/09/19 11:56:45;;;;;;;3.50;1.15;;;22.80;96.40;;;;;;5101686;28;20072;-67
2023/09/19 11:59:11;;;;;;;1.67;1.08;;;23.30;95.90;;;;;;5097166;28;20089;-67
2023/09/19 12:01:44;;;;;;;3.53;1.38;;;23.70;95.40;;;;;;5095606;28;20107;-67
2023/09/19 12:04:12;;;;;;;2.45;1.23;;;24.20;95.20;;;;;;5085443;28;20126;-67
2023/09/19 12:06:44;;;;;;;6.22;1.10;;;24.30;94.60;;;;;;5105441;28;20042;-67
2023/09/19 12:09:16;;;;;;;2.05;0.93;;;24.30;94.40;;;;;;5097006;28;20039;-67
2023/09/19 12:11:44;;;;;;;1.55;0.95;;;24.30;94.40;;;;;;5097277;28;20080;-69
2023/09/19 12:14:10;;;;;;;1.48;1.10;;;24.50;94.20;;;;;;5090634;28;20020;-66
2023/09/19 12:16:36;;;;;;;2.45;1.25;;;24.80;94.00;;;;;;5108356;28;20054;-67
2023/09/19 12:19:21;;;;;;;1.67;1.10;;;24.90;93.50;;;;;;5098514;28;20103;-68
2023/09/19 12:22:05;;;;;;;3.53;1.10;;;25.10;93.20;;;;;;5101643;28;20158;-67
2023/09/19 12:24:32;;;;;;;2.90;1.17;;;25.40;92.80;;;;;;5106664;28;20020;-67
2023/09/19 12:27:06;;;;;;;2.30;1.05;;;25.40;92.50;;;;;;5099779;28;20130;-68
2023/09/19 12:29:44;;;;;;;1.85;1.35;;;25.60;92.30;;;;;;5101177;28;20551;-67
2023/09/19 12:32:09;;;;;;;1.67;0.90;;;25.90;92.20;;;;;;5100150;28;20544;-67
2023/09/19 12:34:35;;;;;;;3.55;1.30;;;26.20;91.30;;;;;;5102836;28;20107;-67
2023/09/19 12:37:15;;;;;;;1.23;0.90;;;26.30;91.00;;;;;;5093488;28;20055;-68
2023/09/19 12:39:44;;;;;;;2.33;1.00;;;26.10;91.00;;;;;;5090189;28;20099;-68
2023/09/19 12:42:10;;;;;;;1.05;0.90;;;26.00;91.40;;;;;;5107267;28;20031;-67
2023/09/19 12:44:43;;;;;;;1.63;1.02;;;26.40;91.10;;;;;;5100040;28;20069;-68
2023/09/19 12:47:20;;;;;;;2.08;1.05;;;27.00;90.50;;;;;;5100510;28;20031;-68
2023/09/19 12:50:17;;;;;;;1.40;1.27;;;27.40;90.10;;;;;;5098599;28;20092;-68
2023/09/19 12:52:48;;;;;;;2.25;1.20;;;27.60;89.30;;;;;;5092878;28;20436;-68
2023/09/19 12:55:25;;;;;;;6.43;1.52;;;27.00;88.80;;;;;;5089382;28;20118;-68
2023/09/19 12:57:59;;;;;;;1.15;1.05;;;26.20;90.00;;;;;;5100191;28;20088;-68
2023/09/19 13:00:36;;;;;;;1.25;1.15;;;26.10;90.20;;;;;;5089688;28;20020;-67
2023/09/19 13:03:25;;;;;;;2.30;1.20;;;25.70;90.00;;;;;;5096114;28;20470;-67
2023/09/19 13:06:00;;;;;;;3.00;1.00;;;25.50;90.00;;;;;;5100150;28;20405;-67
2023/09/19 13:08:34;;;;;;;2.28;1.13;;;25.30;90.20;;;;;;5105291;28;20044;-67
2023/09/19 13:11:20;;;;;;;1.98;1.40;;;25.60;90.40;;;;;;5096723;28;20085;-71